createdAt,value
2019-02-23T00:01:33.334Z,38.33
2019-02-23T00:04:01.234Z,38.40
2019-02-23T00:06:30.202Z,37.30
2019-02-23T00:08:58.460Z,38.37
2019-02-23T00:11:26.674Z,39.03
2019-02-23T00:13:54.567Z,41.30
2019-02-23T00:16:22.508Z,42.70
2019-02-23T00:18:50.472Z,40.70
2019-02-23T00:21:18.423Z,40.73
2019-02-23T00:23:46.372Z,40.80
2019-02-23T00:26:14.267Z,41.60
2019-02-23T00:28:42.157Z,45.40
2019-02-23T00:31:10.159Z,42.27
2019-02-23T00:33:38.364Z,42.73
2019-02-23T00:36:06.262Z,42.57
2019-02-23T00:38:34.191Z,39.10
2019-02-23T00:41:02.057Z,44.27
2019-02-23T00:43:30.011Z,39.03
2019-02-23T00:45:57.962Z,44.90
2019-02-23T00:48:25.979Z,44.30
2019-02-23T00:50:53.980Z,42.77
2019-02-23T00:53:22.019Z,45.73
2019-02-23T00:55:49.914Z,42.40
2019-02-23T00:58:17.855Z,46.40
2019-02-23T01:00:45.754Z,42.57
2019-02-23T01:03:13.644Z,44.17
2019-02-23T01:05:41.585Z,46.80
2019-02-23T01:08:09.536Z,46.50
2019-02-23T01:10:37.489Z,44.30
2019-02-23T01:13:05.427Z,41.33
2019-02-23T01:15:33.381Z,46.87
2019-02-23T01:18:01.275Z,44.50
2019-02-23T01:20:29.212Z,46.30
2019-02-23T01:22:57.093Z,43.63
2019-02-23T01:25:25.014Z,46.30
2019-02-23T01:27:53.051Z,47.00
2019-02-23T01:30:20.969Z,45.03
2019-02-23T01:32:48.838Z,51.90
2019-02-23T01:35:16.789Z,47.73
2019-02-23T01:37:44.700Z,45.90
2019-02-23T01:40:13.102Z,48.17
2019-02-23T01:42:43.717Z,46.07
2019-02-23T01:45:11.601Z,43.37
2019-02-23T01:47:39.502Z,49.80
2019-02-23T01:50:07.993Z,47.60
2019-02-23T01:52:35.990Z,48.20
2019-02-23T01:55:04.363Z,44.87
2019-02-23T01:57:32.266Z,50.63
2019-02-23T02:00:00.405Z,45.03
2019-02-23T02:02:28.348Z,45.10
2019-02-23T02:04:56.270Z,50.30
2019-02-23T02:07:24.158Z,50.83
2019-02-23T02:09:52.084Z,48.00
2019-02-23T02:12:20.358Z,45.30
2019-02-23T02:14:48.367Z,50.87
2019-02-23T02:17:16.467Z,51.07
2019-02-23T02:19:44.348Z,49.57
2019-02-23T02:22:12.212Z,50.60
2019-02-23T02:24:40.201Z,53.43
2019-02-23T02:27:08.129Z,53.53
2019-02-23T02:29:36.038Z,50.97
2019-02-23T02:32:04.073Z,47.10
2019-02-23T02:34:31.955Z,47.73
2019-02-23T02:36:59.957Z,55.43
2019-02-23T02:39:27.885Z,50.90
2019-02-23T02:41:55.797Z,52.83
2019-02-23T02:44:23.690Z,49.47
2019-02-23T02:46:51.664Z,53.07
2019-02-23T02:49:19.778Z,50.13
2019-02-23T02:51:47.677Z,49.53
2019-02-23T02:54:15.566Z,53.07
2019-02-23T02:56:43.513Z,48.47
2019-02-23T02:59:11.457Z,49.80
2019-02-23T03:01:39.349Z,49.90
2019-02-23T03:04:07.353Z,45.03
2019-02-23T03:06:35.448Z,53.73
2019-02-23T03:09:03.710Z,51.10
2019-02-23T03:11:31.595Z,46.03
2019-02-23T03:13:59.506Z,50.83
2019-02-23T03:16:27.651Z,53.50
2019-02-23T03:18:56.053Z,55.57
2019-02-23T03:21:26.658Z,51.83
2019-02-23T03:23:54.550Z,47.73
2019-02-23T03:26:22.494Z,48.43
2019-02-23T03:28:50.396Z,50.80
2019-02-23T03:31:18.307Z,50.27
2019-02-23T03:33:46.256Z,48.27
2019-02-23T03:36:14.142Z,47.47
2019-02-23T03:38:42.035Z,48.93
2019-02-23T03:41:10.038Z,48.83
2019-02-23T03:43:37.947Z,56.87
2019-02-23T03:46:05.981Z,50.07
2019-02-23T03:48:34.036Z,51.27
2019-02-23T03:51:01.983Z,50.40
2019-02-23T03:53:29.877Z,51.50
2019-02-23T03:55:57.812Z,50.60
2019-02-23T03:58:25.838Z,49.03
2019-02-23T04:00:53.764Z,53.63
2019-02-23T04:03:21.747Z,48.00
2019-02-23T04:05:49.619Z,52.70
2019-02-23T04:08:17.544Z,54.97
2019-02-23T04:10:45.490Z,45.90
2019-02-23T04:13:13.476Z,56.97
2019-02-23T04:15:42.005Z,48.40
2019-02-23T04:18:09.935Z,48.27
2019-02-23T04:20:37.897Z,52.40
2019-02-23T04:23:05.803Z,55.70
2019-02-23T04:25:33.705Z,51.07
2019-02-23T04:28:01.971Z,62.70
2019-02-23T04:30:29.865Z,47.57
2019-02-23T04:32:57.766Z,46.97
2019-02-23T04:35:25.743Z,50.57
2019-02-23T04:37:53.661Z,48.33
2019-02-23T04:40:21.531Z,48.03
2019-02-23T04:42:49.480Z,45.90
2019-02-23T04:45:17.621Z,46.23
2019-02-23T04:47:45.560Z,48.97
2019-02-23T04:50:14.079Z,47.87
2019-02-23T04:52:41.954Z,49.53
2019-02-23T04:55:09.918Z,53.07
2019-02-23T04:57:37.906Z,51.13
2019-02-23T05:00:06.523Z,58.70
2019-02-23T05:02:34.383Z,54.97
2019-02-23T05:05:02.707Z,52.57
2019-02-23T05:07:30.631Z,51.73
2019-02-23T05:09:58.542Z,49.80
2019-02-23T05:12:26.466Z,50.37
2019-02-23T05:14:54.478Z,48.50
2019-02-23T05:17:22.364Z,50.10
2019-02-23T05:19:50.436Z,50.37
2019-02-23T05:22:18.343Z,45.00
2019-02-23T05:24:46.242Z,52.43
2019-02-23T05:27:14.185Z,53.03
2019-02-23T05:29:42.170Z,57.53
2019-02-23T05:32:10.060Z,55.17
2019-02-23T05:34:37.976Z,58.10
2019-02-23T05:37:05.860Z,50.80
2019-02-23T05:39:33.757Z,54.37
2019-02-23T05:42:01.700Z,52.53
2019-02-23T05:44:29.610Z,51.00
2019-02-23T05:46:57.500Z,51.17
2019-02-23T05:49:25.467Z,49.73
2019-02-23T05:51:53.411Z,50.90
2019-02-23T05:54:21.319Z,52.50
2019-02-23T05:56:49.245Z,50.03
2019-02-23T05:59:17.199Z,42.67
2019-02-23T06:01:45.161Z,45.23
2019-02-23T06:04:13.068Z,56.63
2019-02-23T06:06:40.962Z,50.03
2019-02-23T06:09:08.906Z,51.67
2019-02-23T06:11:36.804Z,45.47
2019-02-23T06:14:04.709Z,45.53
2019-02-23T06:16:32.677Z,43.73
2019-02-23T06:19:00.652Z,45.17
2019-02-23T06:21:28.761Z,50.90
2019-02-23T06:23:56.691Z,49.50
2019-02-23T06:26:24.619Z,47.30
2019-02-23T06:28:52.515Z,44.57
2019-02-23T06:31:20.480Z,43.60
2019-02-23T06:33:48.378Z,49.03
2019-02-23T06:36:16.295Z,50.43
2019-02-23T06:38:44.268Z,44.03
2019-02-23T06:41:12.378Z,49.07
2019-02-23T06:43:40.238Z,48.50
2019-02-23T06:46:08.674Z,43.40
2019-02-23T06:48:36.641Z,45.73
2019-02-23T06:51:04.565Z,46.77
2019-02-23T06:53:32.601Z,45.73
2019-02-23T06:56:00.491Z,45.23
2019-02-23T06:58:28.421Z,43.27
2019-02-23T07:00:56.438Z,39.57
2019-02-23T07:03:24.357Z,46.43
2019-02-23T07:05:52.376Z,42.37
2019-02-23T07:08:20.361Z,44.53
2019-02-23T07:10:48.407Z,40.73
2019-02-23T07:13:16.363Z,41.13
2019-02-23T07:15:44.246Z,42.30
2019-02-23T07:18:12.217Z,46.80
2019-02-23T07:20:44.304Z,42.77
2019-02-23T07:23:09.704Z,37.07
2019-02-23T07:25:37.670Z,35.73
2019-02-23T07:28:05.615Z,37.00
2019-02-23T07:30:35.381Z,32.70
2019-02-23T07:33:09.261Z,33.93
2019-02-23T07:35:37.273Z,31.00
2019-02-23T07:38:05.393Z,30.33
2019-02-23T07:40:36.802Z,29.67
2019-02-23T07:43:07.821Z,30.60
2019-02-23T07:45:36.852Z,35.27
2019-02-23T07:48:04.954Z,29.13
2019-02-23T07:50:33.228Z,30.80
2019-02-23T07:53:01.771Z,29.57
2019-02-23T07:55:31.335Z,27.37
2019-02-23T07:57:59.723Z,27.40
2019-02-23T08:00:27.697Z,30.00
2019-02-23T08:02:55.608Z,28.10
2019-02-23T08:05:23.558Z,28.40
2019-02-23T08:07:51.449Z,29.97
2019-02-23T08:10:19.376Z,25.37
2019-02-23T08:12:47.320Z,28.50
2019-02-23T08:15:15.264Z,28.63
2019-02-23T08:17:43.172Z,28.67
2019-02-23T08:20:11.186Z,25.40
2019-02-23T08:22:39.340Z,27.03
2019-02-23T08:25:07.585Z,25.33
2019-02-23T08:27:35.544Z,25.43
2019-02-23T08:30:03.455Z,27.77
2019-02-23T08:32:31.457Z,28.70
2019-02-23T08:34:59.365Z,26.53
2019-02-23T08:37:27.233Z,27.27
2019-02-23T08:39:55.152Z,25.60
2019-02-23T08:42:23.057Z,22.47
2019-02-23T08:44:50.974Z,24.63
2019-02-23T08:47:18.889Z,24.63
2019-02-23T08:49:46.838Z,24.37
2019-02-23T08:52:15.231Z,23.13
2019-02-23T08:54:43.422Z,24.17
2019-02-23T08:57:11.368Z,25.67
2019-02-23T08:59:39.228Z,22.10
2019-02-23T09:02:07.171Z,26.87
2019-02-23T09:04:35.084Z,22.50
2019-02-23T09:07:02.964Z,25.80
2019-02-23T09:09:31.264Z,24.60
2019-02-23T09:11:59.412Z,23.47
2019-02-23T09:14:27.355Z,25.37
2019-02-23T09:16:55.245Z,23.40
2019-02-23T09:19:23.136Z,23.90
2019-02-23T09:21:51.220Z,24.73
2019-02-23T09:24:20.077Z,24.63
2019-02-23T09:26:47.995Z,21.20
2019-02-23T09:29:16.091Z,22.23
2019-02-23T09:31:44.023Z,22.47
2019-02-23T09:34:11.969Z,22.43
2019-02-23T09:36:39.883Z,21.50
2019-02-23T09:39:07.762Z,21.77
2019-02-23T09:41:35.726Z,20.17
2019-02-23T09:44:03.739Z,20.97
2019-02-23T09:46:31.725Z,21.87
2019-02-23T09:48:59.640Z,20.00
2019-02-23T09:51:27.647Z,21.13
2019-02-23T09:53:55.613Z,24.37
2019-02-23T09:56:23.649Z,19.40
2019-02-23T09:58:51.614Z,20.43
2019-02-23T10:01:19.579Z,20.10
2019-02-23T10:03:47.651Z,20.63
2019-02-23T10:06:15.638Z,22.80
2019-02-23T10:08:43.678Z,18.87
2019-02-23T10:11:11.618Z,19.37
2019-02-23T10:13:39.646Z,18.97
2019-02-23T10:16:07.720Z,21.73
2019-02-23T10:18:35.838Z,17.83
2019-02-23T10:21:03.749Z,19.47
2019-02-23T10:23:31.769Z,22.97
2019-02-23T10:26:00.508Z,18.57
2019-02-23T10:28:32.061Z,21.33
2019-02-23T10:31:01.514Z,18.63
2019-02-23T10:33:30.078Z,17.03
2019-02-23T10:35:58.737Z,16.77
2019-02-23T10:38:27.537Z,17.77
2019-02-23T10:40:55.738Z,16.00
2019-02-23T10:43:23.783Z,19.23
2019-02-23T10:45:51.960Z,20.10
2019-02-23T10:48:19.947Z,15.80
2019-02-23T10:50:48.755Z,18.33
2019-02-23T10:53:20.931Z,16.70
2019-02-23T10:55:49.880Z,19.30
2019-02-23T10:58:18.671Z,16.13
2019-02-23T11:00:47.964Z,15.23
2019-02-23T11:03:16.721Z,17.23
2019-02-23T11:05:45.278Z,16.53
2019-02-23T11:08:13.210Z,17.10
2019-02-23T11:10:41.119Z,16.87
2019-02-23T11:13:09.149Z,16.67
2019-02-23T11:15:37.432Z,16.60
2019-02-23T11:18:06.631Z,15.80
2019-02-23T11:20:38.980Z,17.77
2019-02-23T11:23:08.140Z,16.80
2019-02-23T11:25:36.210Z,15.90
2019-02-23T11:28:04.738Z,16.10
2019-02-23T11:30:32.749Z,17.67
2019-02-23T11:33:01.150Z,15.93
2019-02-23T11:35:29.288Z,16.43
2019-02-23T11:37:57.321Z,18.43
2019-02-23T11:40:25.455Z,16.20
2019-02-23T11:42:53.383Z,16.40
2019-02-23T11:45:23.446Z,16.47
2019-02-23T11:47:52.932Z,15.30
2019-02-23T11:50:21.108Z,16.13
2019-02-23T11:52:49.888Z,17.47
2019-02-23T11:55:17.798Z,14.20
2019-02-23T11:57:45.700Z,13.90
2019-02-23T12:00:13.806Z,14.97
2019-02-23T12:02:51.743Z,15.40
2019-02-23T12:05:11.583Z,14.93
2019-02-23T12:07:39.628Z,16.03
2019-02-23T12:10:09.357Z,16.73
2019-02-23T12:12:37.647Z,15.17
2019-02-23T12:15:05.648Z,14.37
2019-02-23T12:17:33.572Z,15.47
2019-02-23T12:20:01.593Z,13.80
2019-02-23T12:22:29.538Z,14.57
2019-02-23T12:24:57.527Z,15.50
2019-02-23T12:27:25.456Z,14.97
2019-02-23T12:29:53.386Z,14.97
2019-02-23T12:32:21.544Z,15.47
2019-02-23T12:34:49.530Z,14.13
2019-02-23T12:37:17.541Z,13.63
2019-02-23T12:39:45.478Z,14.10
2019-02-23T12:42:13.398Z,15.13
2019-02-23T12:44:41.319Z,12.33
2019-02-23T12:47:09.291Z,15.13
2019-02-23T12:49:37.317Z,14.77
2019-02-23T12:52:05.318Z,14.43
2019-02-23T12:54:33.288Z,13.53
2019-02-23T12:57:01.403Z,13.47
2019-02-23T12:59:29.344Z,13.30
2019-02-23T13:01:57.257Z,13.63
2019-02-23T13:04:25.237Z,14.10
2019-02-23T13:06:53.506Z,13.13
2019-02-23T13:09:25.470Z,14.00
2019-02-23T13:11:55.587Z,15.10
2019-02-23T13:14:34.959Z,13.67
2019-02-23T13:17:09.981Z,13.90
2019-02-23T13:19:57.078Z,14.13
2019-02-23T13:22:32.090Z,14.33
2019-02-23T13:25:31.130Z,14.17
2019-02-23T13:28:17.606Z,12.73
2019-02-23T13:30:55.681Z,15.20
2019-02-23T13:33:27.393Z,13.23
2019-02-23T13:36:15.953Z,13.57
2019-02-23T13:39:03.899Z,13.40
2019-02-23T13:41:50.899Z,13.87
2019-02-23T13:44:23.530Z,13.33
2019-02-23T13:47:22.569Z,14.23
2019-02-23T13:49:58.846Z,13.73
2019-02-23T13:53:04.100Z,12.83
2019-02-23T13:56:09.330Z,12.50
2019-02-23T13:58:49.445Z,14.07
2019-02-23T14:01:39.470Z,12.90
2019-02-23T14:04:10.852Z,12.87
2019-02-23T14:07:13.248Z,13.40
2019-02-23T14:10:12.133Z,12.53
2019-02-23T14:12:59.789Z,16.17
2019-02-23T14:15:55.929Z,13.27
2019-02-23T14:18:37.147Z,15.70
2019-02-23T14:21:39.473Z,13.33
2019-02-23T14:24:25.186Z,13.90
2019-02-23T14:27:07.139Z,12.47
2019-02-23T14:29:39.008Z,12.83
2019-02-23T14:32:14.088Z,13.93
2019-02-23T14:35:07.372Z,13.93
2019-02-23T14:38:00.142Z,15.03
2019-02-23T14:40:41.109Z,13.13
2019-02-23T14:43:21.837Z,13.40
2019-02-23T14:46:24.057Z,14.43
2019-02-23T14:49:11.307Z,13.30
2019-02-23T14:51:58.416Z,13.07
2019-02-23T14:54:44.491Z,14.00
2019-02-23T14:57:23.294Z,15.23
2019-02-23T15:00:13.246Z,14.10
2019-02-23T15:02:47.412Z,13.90
2019-02-23T15:05:25.335Z,13.10
2019-02-23T15:08:12.369Z,16.37
2019-02-23T15:10:58.017Z,15.03
2019-02-23T15:13:36.262Z,14.33
2019-02-23T15:16:17.036Z,14.43
2019-02-23T15:18:48.819Z,14.27
2019-02-23T15:21:23.298Z,14.03
2019-02-23T15:24:05.555Z,14.30
2019-02-23T15:26:55.713Z,14.60
2019-02-23T15:29:29.829Z,14.50
2019-02-23T15:32:35.379Z,15.03
2019-02-23T15:35:22.424Z,14.67
2019-02-23T15:37:54.739Z,19.07
2019-02-23T15:40:36.200Z,17.07
2019-02-23T15:43:26.390Z,16.17
2019-02-23T15:46:09.708Z,15.70
2019-02-23T15:48:59.701Z,15.27
2019-02-23T15:51:27.751Z,16.17
2019-02-23T15:53:55.714Z,16.37
2019-02-23T15:56:23.736Z,15.53
2019-02-23T15:58:51.842Z,15.90
2019-02-23T16:01:19.835Z,17.17
2019-02-23T16:03:47.845Z,15.13
2019-02-23T16:06:15.957Z,17.30
2019-02-23T16:08:44.028Z,17.33
2019-02-23T16:11:12.655Z,17.73
2019-02-23T16:13:40.611Z,17.70
2019-02-23T16:16:08.542Z,18.50
2019-02-23T16:18:36.567Z,19.17
2019-02-23T16:21:04.566Z,19.33
2019-02-23T16:23:35.567Z,20.50
2019-02-23T16:26:02.756Z,21.67
2019-02-23T16:28:30.688Z,21.17
2019-02-23T16:30:58.655Z,20.30
2019-02-23T16:33:26.655Z,21.07
2019-02-23T16:35:57.494Z,20.73
2019-02-23T16:38:25.494Z,19.73
2019-02-23T16:40:59.066Z,20.43
2019-02-23T16:43:30.962Z,19.87
2019-02-23T16:45:59.978Z,20.13
2019-02-23T16:48:27.948Z,20.07
2019-02-23T16:50:55.953Z,19.17
2019-02-23T16:53:24.171Z,21.30
2019-02-23T16:55:52.101Z,19.77
2019-02-23T16:58:20.155Z,20.27
2019-02-23T17:00:48.187Z,19.03
2019-02-23T17:03:16.253Z,18.63
2019-02-23T17:05:45.121Z,19.33
2019-02-23T17:08:13.133Z,19.50
2019-02-23T17:10:41.200Z,18.67
2019-02-23T17:13:09.158Z,19.77
2019-02-23T17:15:37.116Z,22.17
2019-02-23T17:18:05.087Z,18.37
2019-02-23T17:20:33.014Z,18.97
2019-02-23T17:23:02.134Z,18.53
2019-02-23T17:25:30.307Z,18.87
2019-02-23T17:27:58.209Z,19.67
2019-02-23T17:30:26.346Z,19.27
2019-02-23T17:32:54.295Z,22.47
2019-02-23T17:35:22.374Z,19.60
2019-02-23T17:37:50.271Z,18.97
2019-02-23T17:40:18.310Z,19.20
2019-02-23T17:42:47.416Z,18.17
2019-02-23T17:45:15.316Z,17.00
2019-02-23T17:47:43.341Z,19.13
2019-02-23T17:50:11.321Z,18.90
2019-02-23T17:52:39.256Z,18.47
2019-02-23T17:55:07.267Z,20.03
2019-02-23T17:57:35.237Z,20.33
2019-02-23T18:00:03.303Z,19.57
2019-02-23T18:02:31.496Z,21.13
2019-02-23T18:04:59.510Z,20.60
2019-02-23T18:07:27.496Z,25.87
2019-02-23T18:09:55.490Z,19.87
2019-02-23T18:12:23.605Z,20.33
2019-02-23T18:14:51.564Z,19.63
2019-02-23T18:17:19.514Z,19.87
2019-02-23T18:19:47.424Z,19.50
2019-02-23T18:22:15.302Z,19.17
2019-02-23T18:24:43.356Z,21.40
2019-02-23T18:27:11.460Z,19.00
2019-02-23T18:29:39.534Z,19.77
2019-02-23T18:32:07.475Z,19.83
2019-02-23T18:34:35.485Z,21.73
2019-02-23T18:37:03.699Z,22.13
2019-02-23T18:39:31.612Z,19.43
2019-02-23T18:41:59.502Z,19.63
2019-02-23T18:44:27.605Z,20.57
2019-02-23T18:46:55.557Z,19.33
2019-02-23T18:49:23.544Z,21.67
2019-02-23T18:51:51.910Z,19.97
2019-02-23T18:54:19.815Z,18.87
2019-02-23T18:56:47.723Z,19.67
2019-02-23T18:59:15.662Z,18.63
2019-02-23T19:01:43.745Z,20.33
2019-02-23T19:04:12.384Z,20.57
2019-02-23T19:06:40.354Z,19.93
2019-02-23T19:09:08.244Z,20.17
2019-02-23T19:11:36.165Z,20.27
2019-02-23T19:14:04.126Z,21.20
2019-02-23T19:16:32.181Z,21.43
2019-02-23T19:19:00.159Z,19.50
2019-02-23T19:21:28.262Z,22.70
2019-02-23T19:23:56.463Z,21.07
2019-02-23T19:26:24.395Z,19.43
2019-02-23T19:28:52.545Z,22.10
2019-02-23T19:31:20.444Z,21.00
2019-02-23T19:33:48.429Z,18.97
2019-02-23T19:36:16.434Z,21.27
2019-02-23T19:38:44.533Z,21.77
2019-02-23T19:41:12.588Z,20.83
2019-02-23T19:43:40.550Z,22.23
2019-02-23T19:46:08.700Z,20.80
2019-02-23T19:48:36.678Z,22.27
2019-02-23T19:51:06.676Z,22.93
2019-02-23T19:53:34.634Z,21.50
2019-02-23T19:56:02.686Z,19.73
2019-02-23T19:58:30.765Z,20.80
2019-02-23T20:00:58.905Z,20.20
2019-02-23T20:03:26.972Z,20.47
2019-02-23T20:05:55.131Z,19.17
2019-02-23T20:08:23.184Z,20.70
2019-02-23T20:10:51.255Z,23.50
2019-02-23T20:13:19.352Z,21.07
2019-02-23T20:15:47.661Z,19.97
2019-02-23T20:18:15.625Z,21.17
2019-02-23T20:20:43.613Z,22.17
2019-02-23T20:23:11.575Z,21.47
2019-02-23T20:25:39.718Z,22.20
2019-02-23T20:28:07.830Z,20.43
2019-02-23T20:30:35.756Z,19.70
2019-02-23T20:33:03.752Z,20.47
2019-02-23T20:35:32.223Z,20.30
2019-02-23T20:38:00.260Z,24.47
2019-02-23T20:40:28.642Z,22.83
2019-02-23T20:42:56.607Z,22.53
2019-02-23T20:45:24.649Z,20.70
2019-02-23T20:47:52.749Z,22.20
2019-02-23T20:50:22.056Z,20.50
2019-02-23T20:52:50.272Z,21.77
2019-02-23T20:55:18.267Z,21.43
2019-02-23T20:57:46.356Z,20.67
2019-02-23T21:00:14.325Z,22.63
2019-02-23T21:02:43.729Z,21.70
2019-02-23T21:05:11.765Z,21.53
2019-02-23T21:07:39.788Z,20.33
2019-02-23T21:10:08.171Z,20.60
2019-02-23T21:12:36.268Z,27.47
2019-02-23T21:15:04.870Z,21.83
2019-02-23T21:17:32.926Z,20.60
2019-02-23T21:20:01.042Z,22.23
2019-02-23T21:22:28.983Z,23.13
2019-02-23T21:24:56.924Z,23.67
2019-02-23T21:27:24.974Z,20.63
2019-02-23T21:29:52.999Z,21.67
2019-02-23T21:32:22.228Z,23.20
2019-02-23T21:34:50.597Z,23.70
2019-02-23T21:37:18.741Z,22.33
2019-02-23T21:39:46.727Z,22.33
2019-02-23T21:42:14.641Z,23.17
2019-02-23T21:44:42.626Z,24.73
2019-02-23T21:47:10.729Z,20.37
2019-02-23T21:49:38.628Z,21.10
2019-02-23T21:52:06.597Z,25.10
2019-02-23T21:54:34.503Z,22.20
2019-02-23T21:57:02.488Z,21.80
2019-02-23T21:59:30.490Z,21.87
2019-02-23T22:01:58.464Z,23.27
2019-02-23T22:04:26.480Z,21.73
2019-02-23T22:06:54.767Z,23.00
2019-02-23T22:09:22.747Z,20.83
2019-02-23T22:11:50.692Z,20.97
2019-02-23T22:14:18.631Z,22.03
2019-02-23T22:16:46.728Z,19.23
2019-02-23T22:19:14.738Z,24.77
2019-02-23T22:21:42.769Z,21.33
2019-02-23T22:24:10.668Z,22.67
2019-02-23T22:26:38.669Z,22.63
2019-02-23T22:29:06.681Z,21.00
2019-02-23T22:31:34.626Z,24.10
2019-02-23T22:34:02.563Z,24.60
2019-02-23T22:36:30.909Z,24.47
2019-02-23T22:38:58.804Z,23.47
2019-02-23T22:41:26.808Z,22.00
2019-02-23T22:43:54.758Z,22.07
2019-02-23T22:46:22.761Z,20.70
2019-02-23T22:48:51.144Z,22.63
2019-02-23T22:51:20.480Z,21.90
2019-02-23T22:53:50.290Z,22.20
2019-02-23T22:56:20.083Z,22.73
2019-02-23T22:58:48.722Z,20.43
2019-02-23T23:01:17.341Z,22.50
2019-02-23T23:03:46.274Z,20.23
2019-02-23T23:06:14.662Z,19.33
2019-02-23T23:08:43.621Z,20.33
2019-02-23T23:11:11.519Z,21.87
2019-02-23T23:13:39.451Z,20.70
2019-02-23T23:16:07.816Z,19.30
2019-02-23T23:18:35.755Z,22.27
2019-02-23T23:21:03.623Z,18.37
2019-02-23T23:23:31.529Z,18.67
2019-02-23T23:25:59.583Z,20.73
2019-02-23T23:28:27.540Z,20.20
2019-02-23T23:30:55.522Z,21.17
2019-02-23T23:33:23.469Z,22.87
2019-02-23T23:35:51.355Z,22.37
2019-02-23T23:38:19.297Z,23.67
2019-02-23T23:40:47.180Z,20.50
2019-02-23T23:43:15.075Z,22.07
2019-02-23T23:45:42.978Z,20.87
2019-02-23T23:48:13.749Z,22.10
2019-02-23T23:50:41.645Z,19.33
2019-02-23T23:53:09.550Z,22.10
2019-02-23T23:55:37.546Z,24.93
2019-02-23T23:58:05.413Z,21.23
